Weather at Martha's Vineyard Airport

Public forecast

Using degrees Fahrenheit for public forecast. Weather courtesy of forecast.io.

Current aviation weather report (METAR) for Martha's Vineyard Airport

Retrieved 2020/09/29 07:20 UTC (37 minutes ago):

KMVY 290720Z AUTO 18004KT 1/4SM R24/2000FT FG VV002 20/20 A2995 RMK AO2 T02000200

Closest aviation forecast (TAF) to Martha's Vineyard Airport

Closest forecast is Cape Cod Coast Guard Air Station, 16.5 nm (30.5 km) NNE. Retrieved 2020/09/29 06:42 UTC (1 hour ago):

TAF KFMH 290540Z 2906/3006 20007KT 1/4SM FG OVC003 FM291200 18006KT 1SM BR OVC003 FM291400 19007KT P6SM BKN008 FM291600 19009KT P6SM BKN030 FM292300 18007KT 5SM BR VCSH BKN020 FM300000 17008KT 3SM BR VCSH OVC008